createdAt,value
2022-11-21T00:00:32.308Z,6.43
2022-11-21T00:01:46.423Z,6.43
2022-11-21T00:03:02.400Z,6.45
2022-11-21T00:05:30.089Z,6.50
2022-11-21T00:06:46.328Z,6.50
2022-11-21T00:07:57.036Z,5.99
2022-11-21T00:10:25.068Z,6.47
2022-11-21T00:11:46.341Z,6.47
2022-11-21T00:12:55.875Z,6.25
2022-11-21T00:15:23.297Z,6.47
2022-11-21T00:16:46.344Z,6.47
2022-11-21T00:17:49.907Z,6.34
2022-11-21T00:20:17.081Z,6.05
2022-11-21T00:21:46.327Z,6.05
2022-11-21T00:22:43.599Z,5.26
2022-11-21T00:25:10.570Z,6.24
2022-11-21T00:26:46.529Z,6.24
2022-11-21T00:27:36.969Z,5.63
2022-11-21T00:30:04.500Z,6.28
2022-11-21T00:31:46.354Z,6.28
2022-11-21T00:32:31.623Z,6.42
2022-11-21T00:34:58.023Z,6.29
2022-11-21T00:36:46.369Z,6.29
2022-11-21T00:37:24.359Z,6.20
2022-11-21T00:39:50.685Z,5.07
2022-11-21T00:41:46.336Z,5.07
2022-11-21T00:42:17.011Z,5.51
2022-11-21T00:44:43.414Z,6.46
2022-11-21T00:46:46.373Z,6.46
2022-11-21T00:47:09.789Z,5.93
2022-11-21T00:49:36.205Z,6.36
2022-11-21T00:51:46.362Z,6.36
2022-11-21T00:52:02.555Z,6.17
2022-11-21T00:54:29.200Z,6.16
2022-11-21T00:56:46.355Z,6.16
2022-11-21T00:56:55.656Z,6.02
2022-11-21T00:59:21.976Z,5.69
2022-11-21T01:01:46.371Z,5.69
2022-11-21T01:01:48.326Z,6.14
2022-11-21T01:04:14.824Z,5.94
2022-11-21T01:06:41.150Z,5.60
2022-11-21T01:06:46.356Z,5.60
2022-11-21T01:09:07.594Z,5.02
2022-11-21T01:11:34.099Z,6.27
2022-11-21T01:11:46.395Z,6.27
2022-11-21T01:14:00.854Z,6.23
2022-11-21T01:16:28.683Z,6.19
2022-11-21T01:16:46.376Z,6.19
2022-11-21T01:18:56.416Z,6.13
2022-11-21T01:21:25.344Z,5.98
2022-11-21T01:21:46.373Z,5.98
2022-11-21T01:23:51.932Z,5.73
2022-11-21T01:26:23.949Z,6.05
2022-11-21T01:26:46.407Z,6.05
2022-11-21T01:28:51.080Z,5.45
2022-11-21T01:31:22.952Z,6.05
2022-11-21T01:31:46.386Z,6.05
2022-11-21T01:33:49.784Z,6.06
2022-11-21T01:36:18.542Z,5.63
2022-11-21T01:36:46.381Z,5.63
2022-11-21T01:38:47.953Z,5.89
2022-11-21T01:41:17.817Z,5.79
2022-11-21T01:41:46.372Z,5.79
2022-11-21T01:43:44.279Z,5.54
2022-11-21T01:46:15.030Z,5.65
2022-11-21T01:46:46.377Z,5.65
2022-11-21T01:49:07.946Z,6.03
2022-11-21T01:51:42.498Z,5.79
2022-11-21T01:51:46.380Z,5.79
2022-11-21T01:54:18.720Z,5.49
2022-11-21T01:57:16.038Z,5.73
2022-11-21T01:57:16.168Z,5.73
2022-11-21T02:00:05.063Z,5.11
2022-11-21T02:01:46.380Z,5.11
2022-11-21T02:02:35.605Z,5.21
2022-11-21T02:05:04.419Z,5.95
2022-11-21T02:06:46.392Z,5.95
2022-11-21T02:07:35.612Z,5.72
2022-11-21T02:10:03.457Z,5.75
2022-11-21T02:11:46.364Z,5.75
2022-11-21T02:12:39.802Z,5.50
2022-11-21T02:15:07.115Z,5.12
2022-11-21T02:16:46.389Z,5.12
2022-11-21T02:17:33.594Z,5.18
2022-11-21T02:20:03.033Z,5.78
2022-11-21T02:21:46.396Z,5.78
2022-11-21T02:22:49.241Z,5.90
2022-11-21T02:25:21.919Z,5.55
2022-11-21T02:26:46.507Z,5.55
2022-11-21T02:27:49.313Z,5.89
2022-11-21T02:30:16.839Z,5.50
2022-11-21T02:31:46.411Z,5.50
2022-11-21T02:32:48.264Z,5.75
2022-11-21T02:35:17.112Z,5.88
2022-11-21T02:36:46.379Z,5.88
2022-11-21T02:37:46.938Z,5.83
2022-11-21T02:40:18.863Z,5.81
2022-11-21T02:41:46.400Z,5.81
2022-11-21T02:43:00.142Z,5.78
2022-11-21T02:45:38.185Z,4.90
2022-11-21T02:46:46.398Z,4.90
2022-11-21T02:48:04.947Z,4.99
2022-11-21T02:50:33.779Z,5.35
2022-11-21T02:51:46.390Z,5.35
2022-11-21T02:53:00.555Z,5.37
2022-11-21T02:55:27.503Z,5.40
2022-11-21T02:56:46.416Z,5.40
2022-11-21T02:57:53.982Z,5.37
2022-11-21T03:00:21.110Z,4.50
2022-11-21T03:01:46.384Z,4.50
2022-11-21T03:02:47.854Z,5.00
2022-11-21T03:05:17.027Z,5.53
2022-11-21T03:06:46.373Z,5.53
2022-11-21T03:07:43.827Z,5.62
2022-11-21T03:10:10.764Z,5.46
2022-11-21T03:11:46.414Z,5.46
2022-11-21T03:12:38.638Z,4.97
2022-11-21T03:15:06.931Z,5.58
2022-11-21T03:16:46.378Z,5.58
2022-11-21T03:17:33.492Z,5.28
2022-11-21T03:19:59.866Z,5.41
2022-11-21T03:21:46.388Z,5.41
2022-11-21T03:22:26.429Z,4.64
2022-11-21T03:24:52.990Z,4.06
2022-11-21T03:26:46.552Z,4.06
2022-11-21T03:27:19.402Z,5.20
2022-11-21T03:29:45.793Z,5.38
2022-11-21T03:31:46.389Z,5.38
2022-11-21T03:32:12.183Z,5.02
2022-11-21T03:34:38.514Z,5.26
2022-11-21T03:36:46.398Z,5.26
2022-11-21T03:37:04.952Z,4.34
2022-11-21T03:39:31.375Z,4.72
2022-11-21T03:41:46.374Z,4.72
2022-11-21T03:41:57.838Z,5.18
2022-11-21T03:44:24.375Z,5.24
2022-11-21T03:46:46.387Z,5.24
2022-11-21T03:46:50.746Z,5.43
2022-11-21T03:49:17.140Z,5.33
2022-11-21T03:51:44.587Z,5.22
2022-11-21T03:51:46.383Z,5.22
2022-11-21T03:54:11.603Z,5.13
2022-11-21T03:56:39.771Z,5.12
2022-11-21T03:56:46.408Z,5.12
2022-11-21T03:59:06.544Z,5.26
2022-11-21T04:01:36.562Z,4.56
2022-11-21T04:01:46.422Z,4.56
2022-11-21T04:04:03.675Z,4.54
2022-11-21T04:06:31.434Z,5.07
2022-11-21T04:06:46.422Z,5.07
2022-11-21T04:08:57.878Z,5.45
2022-11-21T04:11:24.649Z,4.79
2022-11-21T04:11:46.396Z,4.79
2022-11-21T04:13:52.066Z,4.79
2022-11-21T04:16:18.637Z,4.98
2022-11-21T04:16:46.391Z,4.98
2022-11-21T04:18:45.083Z,5.40
2022-11-21T04:21:11.521Z,5.24
2022-11-21T04:21:46.422Z,5.24
2022-11-21T04:23:37.867Z,5.22
2022-11-21T04:26:04.266Z,5.05
2022-11-21T04:26:46.434Z,5.05
2022-11-21T04:28:31.300Z,4.91
2022-11-21T04:31:09.970Z,4.59
2022-11-21T04:31:46.428Z,4.59
2022-11-21T04:33:38.707Z,5.26
2022-11-21T04:36:06.194Z,4.91
2022-11-21T04:36:46.471Z,4.91
2022-11-21T04:38:32.551Z,4.57
2022-11-21T04:40:58.884Z,5.08
2022-11-21T04:41:46.394Z,5.08
2022-11-21T04:43:25.211Z,4.97
2022-11-21T04:45:51.536Z,4.75
2022-11-21T04:46:46.425Z,4.75
2022-11-21T04:48:17.985Z,5.05
2022-11-21T04:50:45.773Z,5.22
2022-11-21T04:51:46.396Z,5.22
2022-11-21T04:53:12.425Z,4.78
2022-11-21T04:55:38.821Z,4.87
2022-11-21T04:56:46.424Z,4.87
2022-11-21T04:58:05.340Z,5.09
2022-11-21T05:00:31.741Z,5.13
2022-11-21T05:01:46.396Z,5.13
2022-11-21T05:03:05.734Z,5.26
2022-11-21T05:05:32.631Z,5.09
2022-11-21T05:06:46.418Z,5.09
2022-11-21T05:07:59.198Z,4.77
2022-11-21T05:10:25.629Z,4.79
2022-11-21T05:11:46.405Z,4.79
2022-11-21T05:13:18.346Z,5.16
2022-11-21T05:15:45.304Z,5.02
2022-11-21T05:16:46.402Z,5.02
2022-11-21T05:18:11.794Z,4.69
2022-11-21T05:20:38.189Z,5.11
2022-11-21T05:21:46.426Z,5.11
2022-11-21T05:23:04.572Z,4.66
2022-11-21T05:25:30.968Z,4.25
2022-11-21T05:26:46.596Z,4.25
2022-11-21T05:27:57.436Z,4.56
2022-11-21T05:30:23.977Z,4.73
2022-11-21T05:31:46.406Z,4.73
2022-11-21T05:32:50.364Z,4.34
2022-11-21T05:35:16.742Z,4.42
2022-11-21T05:36:46.448Z,4.42
2022-11-21T05:37:43.278Z,4.85
2022-11-21T05:40:10.215Z,4.79
2022-11-21T05:41:46.428Z,4.79
2022-11-21T05:42:58.316Z,4.96
2022-11-21T05:45:24.656Z,4.63
2022-11-21T05:46:46.441Z,4.63
2022-11-21T05:47:51.027Z,4.51
2022-11-21T05:50:17.443Z,4.97
2022-11-21T05:51:46.438Z,4.97
2022-11-21T05:52:43.819Z,5.00
2022-11-21T05:55:10.157Z,4.86
2022-11-21T05:56:46.415Z,4.86
2022-11-21T05:57:36.566Z,4.88
2022-11-21T06:00:03.648Z,4.88
2022-11-21T06:01:46.455Z,4.88
2022-11-21T06:02:48.924Z,4.63
2022-11-21T06:05:15.335Z,4.78
2022-11-21T06:06:46.453Z,4.78
2022-11-21T06:07:41.766Z,4.67
2022-11-21T06:10:08.332Z,4.98
2022-11-21T06:11:46.479Z,4.98
2022-11-21T06:12:34.651Z,4.45
2022-11-21T06:15:01.048Z,4.82
2022-11-21T06:16:46.447Z,4.82
2022-11-21T06:17:27.401Z,4.98
2022-11-21T06:19:53.784Z,4.78
2022-11-21T06:21:46.461Z,4.78
2022-11-21T06:22:20.181Z,3.73
2022-11-21T06:24:46.648Z,4.56
2022-11-21T06:26:46.428Z,4.56
2022-11-21T06:27:12.962Z,4.29
2022-11-21T06:29:39.365Z,4.77
2022-11-21T06:31:46.417Z,4.77
2022-11-21T06:32:05.719Z,5.04
2022-11-21T06:34:32.164Z,4.63
2022-11-21T06:36:46.443Z,4.63
2022-11-21T06:36:59.149Z,5.09
2022-11-21T06:39:25.647Z,4.43
2022-11-21T06:41:46.420Z,4.43
2022-11-21T06:41:52.019Z,5.02
2022-11-21T06:44:18.747Z,4.76
2022-11-21T06:46:51.253Z,5.22
2022-11-21T06:46:51.934Z,5.22
2022-11-21T06:49:18.189Z,4.85
2022-11-21T06:51:44.727Z,5.02
2022-11-21T06:51:46.415Z,5.02
2022-11-21T06:54:16.253Z,5.05
2022-11-21T06:56:43.081Z,5.33
2022-11-21T06:56:46.440Z,5.33
2022-11-21T06:59:09.393Z,4.83
2022-11-21T07:01:35.788Z,4.39
2022-11-21T07:01:46.492Z,4.39
2022-11-21T07:04:02.145Z,4.72
2022-11-21T07:06:28.461Z,4.65
2022-11-21T07:06:46.432Z,4.65
2022-11-21T07:11:41.295Z,4.63
2022-11-21T07:11:46.444Z,4.63
2022-11-21T07:14:09.244Z,5.24
2022-11-21T07:16:35.929Z,5.23
2022-11-21T07:16:46.422Z,5.23
2022-11-21T07:19:02.390Z,5.11
2022-11-21T07:21:28.746Z,5.23
2022-11-21T07:21:46.423Z,5.23
2022-11-21T07:23:55.163Z,5.37
2022-11-21T07:26:21.564Z,4.83
2022-11-21T07:26:46.610Z,4.83
2022-11-21T07:28:47.987Z,5.12
2022-11-21T07:31:14.624Z,4.91
2022-11-21T07:31:46.442Z,4.91
2022-11-21T07:33:43.500Z,5.49
2022-11-21T07:36:10.884Z,5.23
2022-11-21T07:36:46.431Z,5.23
2022-11-21T07:38:37.229Z,5.26
2022-11-21T07:41:03.626Z,5.29
2022-11-21T07:41:46.447Z,5.29
2022-11-21T07:43:29.999Z,5.62
2022-11-21T07:45:56.426Z,5.54
2022-11-21T07:46:46.442Z,5.54
2022-11-21T07:48:22.755Z,5.39
2022-11-21T07:50:49.125Z,5.23
2022-11-21T07:51:46.459Z,5.23
2022-11-21T07:53:15.522Z,5.38
2022-11-21T07:55:42.440Z,5.27
2022-11-21T07:56:46.430Z,5.27
2022-11-21T07:58:15.008Z,5.43
2022-11-21T08:00:42.894Z,5.43
2022-11-21T08:01:46.541Z,5.43
2022-11-21T08:03:11.893Z,5.50
2022-11-21T08:05:39.992Z,5.56
2022-11-21T08:06:46.429Z,5.56
2022-11-21T08:08:06.993Z,5.84
2022-11-21T08:10:33.739Z,5.39
2022-11-21T08:11:46.437Z,5.39
2022-11-21T08:13:00.218Z,5.40
2022-11-21T08:15:26.612Z,5.40
2022-11-21T08:16:46.457Z,5.40
2022-11-21T08:17:52.991Z,5.34
2022-11-21T08:20:19.423Z,5.77
2022-11-21T08:21:46.527Z,5.77
2022-11-21T08:22:45.830Z,5.76
2022-11-21T08:25:12.327Z,5.36
2022-11-21T08:26:46.489Z,5.36
2022-11-21T08:27:39.599Z,5.69
2022-11-21T08:30:08.874Z,6.05
2022-11-21T08:31:46.457Z,6.05
2022-11-21T08:32:35.381Z,5.00
2022-11-21T08:35:01.980Z,5.90
2022-11-21T08:36:46.424Z,5.90
2022-11-21T08:37:31.748Z,6.04
2022-11-21T08:39:59.031Z,6.11
2022-11-21T08:41:46.452Z,6.11
2022-11-21T08:42:26.117Z,5.82
2022-11-21T08:44:52.582Z,6.13
2022-11-21T08:46:46.463Z,6.13
2022-11-21T08:47:20.435Z,5.54
2022-11-21T08:49:47.383Z,5.75
2022-11-21T08:51:46.453Z,5.75
2022-11-21T08:52:14.711Z,5.93
2022-11-21T08:54:41.151Z,6.21
2022-11-21T08:56:46.482Z,6.21
2022-11-21T08:57:07.582Z,5.58
2022-11-21T08:59:33.917Z,5.86
2022-11-21T09:01:46.526Z,5.86
2022-11-21T09:02:00.284Z,6.16
2022-11-21T09:04:27.031Z,6.32
2022-11-21T09:06:46.449Z,6.32
2022-11-21T09:06:53.666Z,6.09
2022-11-21T09:09:25.111Z,5.92
2022-11-21T09:11:46.433Z,5.92
2022-11-21T09:11:52.028Z,6.40
2022-11-21T09:14:36.772Z,6.57
2022-11-21T09:16:46.446Z,6.57
2022-11-21T09:17:22.012Z,6.74
2022-11-21T09:19:48.951Z,6.56
2022-11-21T09:21:46.454Z,6.56
2022-11-21T09:22:15.301Z,6.55
2022-11-21T09:24:41.727Z,6.96
2022-11-21T09:26:46.994Z,6.96
2022-11-21T09:27:08.098Z,7.09
2022-11-21T09:29:34.421Z,7.49
2022-11-21T09:31:46.454Z,7.49
2022-11-21T09:32:00.827Z,7.34
2022-11-21T09:34:27.613Z,7.32
2022-11-21T09:36:47.000Z,7.32
2022-11-21T09:36:55.380Z,6.82
2022-11-21T09:39:21.795Z,6.68
2022-11-21T09:41:46.480Z,6.68
2022-11-21T09:42:00.355Z,7.36
2022-11-21T09:44:52.318Z,7.27
2022-11-21T09:46:46.463Z,7.27
2022-11-21T09:47:37.865Z,6.43
2022-11-21T09:50:26.111Z,6.11
2022-11-21T09:51:46.453Z,6.11
2022-11-21T09:53:06.759Z,6.30
2022-11-21T09:55:44.834Z,7.06
2022-11-21T09:56:47.029Z,7.06
2022-11-21T09:58:31.969Z,7.09
2022-11-21T10:00:59.156Z,6.19
2022-11-21T10:01:47.179Z,6.19
2022-11-21T10:03:29.769Z,7.21
2022-11-21T10:06:03.628Z,7.24
2022-11-21T10:06:47.223Z,7.24
2022-11-21T10:08:48.156Z,7.29
2022-11-21T10:11:24.255Z,7.33
2022-11-21T10:11:46.451Z,7.33
2022-11-21T10:14:07.824Z,7.41
2022-11-21T10:17:08.440Z,7.46
2022-11-21T10:17:08.581Z,7.46
2022-11-21T10:19:50.113Z,7.51
2022-11-21T10:21:46.452Z,7.51
2022-11-21T10:22:49.524Z,7.50
2022-11-21T10:25:27.155Z,7.47
2022-11-21T10:26:46.612Z,7.47
2022-11-21T10:28:02.410Z,6.43
2022-11-21T10:30:29.703Z,7.18
2022-11-21T10:31:46.478Z,7.18
2022-11-21T10:33:01.608Z,7.15
2022-11-21T10:35:39.656Z,7.39
2022-11-21T10:36:46.450Z,7.39
2022-11-21T10:38:23.442Z,7.06
2022-11-21T10:41:02.048Z,7.23
2022-11-21T10:41:46.484Z,7.23
2022-11-21T10:43:58.441Z,7.24
2022-11-21T10:46:24.782Z,7.50
2022-11-21T10:46:47.491Z,7.50
2022-11-21T10:48:58.759Z,6.50
2022-11-21T10:51:34.097Z,7.96
2022-11-21T10:51:47.169Z,7.96
2022-11-21T10:54:27.493Z,7.93
2022-11-21T10:56:46.492Z,7.93
2022-11-21T10:56:56.560Z,8.15
2022-11-21T10:59:30.440Z,8.48
2022-11-21T11:01:46.460Z,8.48
2022-11-21T11:02:13.662Z,7.79
2022-11-21T11:04:47.546Z,9.21
2022-11-21T11:06:46.490Z,9.21
2022-11-21T11:07:23.995Z,9.57
2022-11-21T11:09:53.567Z,9.08
2022-11-21T11:11:46.466Z,9.08
2022-11-21T11:12:23.884Z,9.55
2022-11-21T11:14:54.722Z,9.51
2022-11-21T11:16:46.510Z,9.51
2022-11-21T11:17:32.416Z,9.17
2022-11-21T11:20:26.589Z,9.37
2022-11-21T11:21:46.481Z,9.37
2022-11-21T11:22:53.105Z,8.98
2022-11-21T11:25:19.483Z,8.68
2022-11-21T11:26:46.502Z,8.68
2022-11-21T11:27:45.929Z,9.25
2022-11-21T11:30:17.316Z,9.66
2022-11-21T11:31:46.464Z,9.66
2022-11-21T11:32:43.709Z,9.57
2022-11-21T11:35:12.807Z,9.67
2022-11-21T11:36:47.198Z,9.67
2022-11-21T11:37:48.445Z,9.43
2022-11-21T11:40:28.438Z,9.71
2022-11-21T11:41:47.237Z,9.71
2022-11-21T11:43:35.175Z,9.68
2022-11-21T11:46:58.325Z,9.66
2022-11-21T11:46:58.469Z,9.66
2022-11-21T11:49:53.095Z,9.66
2022-11-21T11:51:47.018Z,9.66
2022-11-21T11:52:25.127Z,8.89
2022-11-21T11:54:58.883Z,9.30
2022-11-21T11:56:47.188Z,9.30
2022-11-21T11:57:27.626Z,9.35
2022-11-21T12:00:14.520Z,8.88
2022-11-21T12:01:46.536Z,8.88
2022-11-21T12:02:59.897Z,9.46
2022-11-21T12:05:29.587Z,9.33
2022-11-21T12:07:26.221Z,9.33
2022-11-21T12:12:00.633Z,9.05
2022-11-21T12:12:00.770Z,9.05
2022-11-21T12:15:00.851Z,9.33
2022-11-21T12:16:47.072Z,9.33
2022-11-21T12:17:35.196Z,9.26
2022-11-21T12:20:11.131Z,9.46
2022-11-21T12:21:46.481Z,9.46
2022-11-21T12:22:37.634Z,9.30
2022-11-21T12:25:09.870Z,8.81
2022-11-21T12:26:47.115Z,8.81
2022-11-21T12:27:36.984Z,9.42
2022-11-21T12:30:25.559Z,9.56
2022-11-21T12:31:47.198Z,9.56
2022-11-21T12:32:57.953Z,9.22
2022-11-21T12:35:54.147Z,9.13
2022-11-21T12:36:47.058Z,9.13
2022-11-21T12:38:49.138Z,8.98
2022-11-21T12:41:42.593Z,8.57
2022-11-21T12:41:46.475Z,8.57
2022-11-21T12:44:21.751Z,7.93
2022-11-21T12:46:47.126Z,7.93
2022-11-21T12:47:06.479Z,8.31
2022-11-21T12:50:06.479Z,8.71
2022-11-21T12:51:46.494Z,8.71
2022-11-21T12:53:08.291Z,8.26
2022-11-21T12:55:39.912Z,8.71
2022-11-21T12:56:46.477Z,8.71
2022-11-21T12:58:31.492Z,8.84
2022-11-21T13:00:59.114Z,6.17
2022-11-21T13:01:46.534Z,6.17
2022-11-21T13:03:51.039Z,8.72
2022-11-21T13:06:26.934Z,9.11
2022-11-21T13:06:47.098Z,9.11
2022-11-21T13:08:55.833Z,8.56
2022-11-21T13:12:01.466Z,8.98
2022-11-21T13:12:01.703Z,8.98
2022-11-21T13:14:34.527Z,9.30
2022-11-21T13:16:46.467Z,9.30
2022-11-21T13:17:08.903Z,8.39
2022-11-21T13:19:41.531Z,8.96
2022-11-21T13:21:46.483Z,8.96
2022-11-21T13:22:27.766Z,8.91
2022-11-21T13:24:56.414Z,8.83
2022-11-21T13:26:47.135Z,8.83
2022-11-21T13:27:26.484Z,8.38
2022-11-21T13:30:08.823Z,8.79
2022-11-21T13:31:46.458Z,8.79
2022-11-21T13:32:44.362Z,8.69
2022-11-21T13:35:19.972Z,8.61
2022-11-21T13:36:46.512Z,8.61
2022-11-21T13:37:49.449Z,8.61
2022-11-21T13:40:28.288Z,8.59
2022-11-21T13:41:46.500Z,8.59
2022-11-21T13:45:59.229Z,8.18
2022-11-21T13:46:47.036Z,8.18
2022-11-21T13:48:28.677Z,8.52
2022-11-21T13:51:14.307Z,8.13
2022-11-21T13:51:46.478Z,8.13
2022-11-21T13:54:08.598Z,8.28
2022-11-21T13:56:38.933Z,7.85
2022-11-21T13:56:47.187Z,7.85
2022-11-21T13:59:30.450Z,8.31
2022-11-21T14:01:46.533Z,8.31
2022-11-21T14:02:15.927Z,8.08
2022-11-21T14:04:51.739Z,7.85
2022-11-21T14:06:46.535Z,7.85
2022-11-21T14:07:33.807Z,8.10
2022-11-21T14:10:18.171Z,8.07
2022-11-21T14:11:47.050Z,8.07
2022-11-21T14:12:48.688Z,8.06
2022-11-21T14:15:42.854Z,7.89
2022-11-21T14:16:47.124Z,7.89
2022-11-21T14:18:22.243Z,7.92
2022-11-21T14:20:58.019Z,7.99
2022-11-21T14:21:46.496Z,7.99
2022-11-21T14:23:28.298Z,7.95
2022-11-21T14:26:03.781Z,7.33
2022-11-21T14:26:47.220Z,7.33
2022-11-21T14:28:35.010Z,7.70
2022-11-21T14:31:06.608Z,7.64
2022-11-21T14:31:47.276Z,7.64
2022-11-21T14:33:35.504Z,7.61
2022-11-21T14:36:06.341Z,7.53
2022-11-21T14:36:46.473Z,7.53
2022-11-21T14:38:45.001Z,7.24
2022-11-21T14:41:18.188Z,6.93
2022-11-21T14:41:47.186Z,6.93
2022-11-21T14:43:44.553Z,6.93
2022-11-21T14:46:21.095Z,6.44
2022-11-21T14:46:47.451Z,6.44
2022-11-21T14:48:47.508Z,7.21
2022-11-21T14:51:19.749Z,7.08
2022-11-21T14:51:46.499Z,7.08
2022-11-21T14:53:48.358Z,6.54
2022-11-21T14:56:28.328Z,6.61
2022-11-21T14:56:47.119Z,6.61
2022-11-21T14:58:57.878Z,6.86
2022-11-21T15:01:34.107Z,6.78
2022-11-21T15:01:47.818Z,6.78
2022-11-21T15:04:03.646Z,6.69
2022-11-21T15:06:33.515Z,6.45
2022-11-21T15:06:47.115Z,6.45
2022-11-21T15:11:52.630Z,5.95
2022-11-21T15:11:52.767Z,5.95
2022-11-21T15:14:33.928Z,6.34
2022-11-21T15:16:47.304Z,6.34
2022-11-21T15:17:04.077Z,6.48
2022-11-21T15:19:32.718Z,5.85
2022-11-21T15:21:46.678Z,5.85
2022-11-21T15:22:04.572Z,5.89
2022-11-21T15:24:39.923Z,6.47
2022-11-21T15:26:47.372Z,6.47
2022-11-21T15:27:28.062Z,6.42
2022-11-21T15:30:21.382Z,6.11
2022-11-21T15:31:46.481Z,6.11
2022-11-21T15:33:15.620Z,6.36
2022-11-21T15:35:51.084Z,6.27
2022-11-21T15:36:47.055Z,6.27
2022-11-21T15:38:33.647Z,6.31
2022-11-21T15:41:08.043Z,6.26
2022-11-21T15:41:46.479Z,6.26
2022-11-21T15:43:37.257Z,6.29
2022-11-21T15:46:05.316Z,5.68
2022-11-21T15:46:47.194Z,5.68
2022-11-21T15:48:31.651Z,5.96
2022-11-21T15:50:59.114Z,5.68
2022-11-21T15:52:06.927Z,5.68
2022-11-21T15:53:25.599Z,5.95
2022-11-21T15:55:51.930Z,5.46
2022-11-21T15:56:47.200Z,5.46
2022-11-21T15:58:18.479Z,5.70
2022-11-21T16:00:44.895Z,5.51
2022-11-21T16:01:47.010Z,5.51
2022-11-21T16:03:11.295Z,5.42
2022-11-21T16:05:38.861Z,5.52
2022-11-21T16:06:46.894Z,5.52
2022-11-21T16:08:05.507Z,5.96
2022-11-21T16:10:31.925Z,5.54
2022-11-21T16:11:47.110Z,5.54
2022-11-21T16:12:58.333Z,6.18
2022-11-21T16:15:24.864Z,5.60
2022-11-21T16:16:47.442Z,5.60
2022-11-21T16:17:52.307Z,6.00
2022-11-21T16:20:18.808Z,6.19
2022-11-21T16:21:46.512Z,6.19
2022-11-21T16:22:47.769Z,5.82
2022-11-21T16:25:15.338Z,5.65
2022-11-21T16:26:47.114Z,5.65
2022-11-21T16:27:41.760Z,5.99
2022-11-21T16:30:08.965Z,5.83
2022-11-21T16:31:46.518Z,5.83
2022-11-21T16:32:35.379Z,5.67
2022-11-21T16:35:01.761Z,5.96
2022-11-21T16:36:46.496Z,5.96
2022-11-21T16:37:28.047Z,5.10
2022-11-21T16:39:54.341Z,6.19
2022-11-21T16:41:46.489Z,6.19
2022-11-21T16:42:20.764Z,6.03
2022-11-21T16:44:48.163Z,6.03
2022-11-21T16:46:47.563Z,6.03
2022-11-21T16:47:15.073Z,5.86
2022-11-21T16:49:48.247Z,6.12
2022-11-21T16:51:46.471Z,6.12
2022-11-21T16:52:15.278Z,5.18
2022-11-21T16:54:41.691Z,5.52
2022-11-21T16:56:47.105Z,5.52
2022-11-21T16:57:08.037Z,6.25
2022-11-21T16:59:34.409Z,5.96
2022-11-21T17:01:47.380Z,5.96
2022-11-21T17:02:00.780Z,5.83
2022-11-21T17:04:27.162Z,6.28
2022-11-21T17:06:47.144Z,6.28
2022-11-21T17:06:53.562Z,5.80
2022-11-21T17:09:19.872Z,5.10
2022-11-21T17:11:46.256Z,5.15
2022-11-21T17:11:46.552Z,5.15
2022-11-21T17:14:12.952Z,5.72
2022-11-21T17:16:42.501Z,5.47
2022-11-21T17:16:46.489Z,5.47
2022-11-21T17:19:15.033Z,5.67
2022-11-21T17:21:41.681Z,5.28
2022-11-21T17:21:46.511Z,5.28
2022-11-21T17:24:08.094Z,6.16
2022-11-21T17:26:37.840Z,5.79
2022-11-21T17:26:46.487Z,5.79
2022-11-21T17:29:04.897Z,5.53
2022-11-21T17:31:32.084Z,5.99
2022-11-21T17:31:46.993Z,5.99
2022-11-21T17:34:01.126Z,5.37
2022-11-21T17:36:29.448Z,5.92
2022-11-21T17:36:46.494Z,5.92
2022-11-21T17:38:56.223Z,6.08
2022-11-21T17:41:24.061Z,6.04
2022-11-21T17:41:46.509Z,6.04
2022-11-21T17:43:54.332Z,5.57
2022-11-21T17:46:20.988Z,6.00
2022-11-21T17:46:47.043Z,6.00
2022-11-21T17:48:54.823Z,5.71
2022-11-21T17:51:29.358Z,5.76
2022-11-21T17:51:46.489Z,5.76
2022-11-21T17:53:56.742Z,5.65
2022-11-21T17:56:26.238Z,5.82
2022-11-21T17:56:49.222Z,5.82
2022-11-21T17:58:52.752Z,5.88
2022-11-21T18:01:20.097Z,5.42
2022-11-21T18:01:46.629Z,5.42
2022-11-21T18:03:58.196Z,5.69
2022-11-21T18:06:25.929Z,5.85
2022-11-21T18:06:47.146Z,5.85
2022-11-21T18:08:52.404Z,5.82
2022-11-21T18:11:23.745Z,5.84
2022-11-21T18:11:46.493Z,5.84
2022-11-21T18:13:50.638Z,5.69
2022-11-21T18:16:20.736Z,4.08
2022-11-21T18:16:51.114Z,4.08
2022-11-21T18:18:47.625Z,4.96
2022-11-21T18:21:21.250Z,5.41
2022-11-21T18:21:46.493Z,5.41
2022-11-21T18:23:48.577Z,5.91
2022-11-21T18:26:21.105Z,5.93
2022-11-21T18:26:47.126Z,5.93
2022-11-21T18:28:57.232Z,5.59
2022-11-21T18:31:36.109Z,5.91
2022-11-21T18:31:46.498Z,5.91
2022-11-21T18:34:05.065Z,5.31
2022-11-21T18:36:32.854Z,5.75
2022-11-21T18:36:47.025Z,5.75
2022-11-21T18:39:07.165Z,6.00
2022-11-21T18:41:36.364Z,5.48
2022-11-21T18:41:47.188Z,5.48
2022-11-21T18:44:05.394Z,5.15
2022-11-21T18:46:34.076Z,6.03
2022-11-21T18:46:47.065Z,6.03
2022-11-21T18:49:04.583Z,5.73
2022-11-21T18:51:32.500Z,4.98
2022-11-21T18:51:46.497Z,4.98
2022-11-21T18:54:04.097Z,5.84
2022-11-21T18:56:30.596Z,6.08
2022-11-21T18:56:47.274Z,6.08
2022-11-21T18:58:58.763Z,5.91
2022-11-21T19:01:27.897Z,5.85
2022-11-21T19:01:46.563Z,5.85
2022-11-21T19:03:55.256Z,6.02
2022-11-21T19:06:24.835Z,5.99
2022-11-21T19:06:46.500Z,5.99
2022-11-21T19:08:55.560Z,6.01
2022-11-21T19:11:24.333Z,5.97
2022-11-21T19:11:46.484Z,5.97
2022-11-21T19:13:51.736Z,5.44
2022-11-21T19:16:20.411Z,5.21
2022-11-21T19:16:46.505Z,5.21
2022-11-21T19:19:05.440Z,5.44
2022-11-21T19:21:38.759Z,5.94
2022-11-21T19:21:46.505Z,5.94
2022-11-21T19:24:09.318Z,5.63
2022-11-21T19:26:35.669Z,5.79
2022-11-21T19:26:46.512Z,5.79
2022-11-21T19:29:03.150Z,5.35
2022-11-21T19:31:29.560Z,5.38
2022-11-21T19:31:46.500Z,5.38
2022-11-21T19:33:55.984Z,5.86
2022-11-21T19:36:23.718Z,5.66
2022-11-21T19:36:46.545Z,5.66
2022-11-21T19:38:51.534Z,5.42
2022-11-21T19:41:25.747Z,6.08
2022-11-21T19:41:46.486Z,6.08
2022-11-21T19:43:54.515Z,6.06
2022-11-21T19:46:23.136Z,5.93
2022-11-21T19:46:46.508Z,5.93
2022-11-21T19:48:51.248Z,5.93
2022-11-21T19:51:18.957Z,5.98
2022-11-21T19:51:46.547Z,5.98
2022-11-21T19:53:45.896Z,5.99
2022-11-21T19:56:20.995Z,5.55
2022-11-21T19:56:46.513Z,5.55
2022-11-21T19:58:48.707Z,5.66
2022-11-21T20:01:23.174Z,5.88
2022-11-21T20:01:52.228Z,5.88
2022-11-21T20:03:52.043Z,5.05
2022-11-21T20:06:25.499Z,6.22
2022-11-21T20:06:46.507Z,6.22
2022-11-21T20:09:05.363Z,6.22
2022-11-21T20:11:32.846Z,6.05
2022-11-21T20:11:46.517Z,6.05
2022-11-21T20:13:59.536Z,5.60
2022-11-21T20:16:32.646Z,6.05
2022-11-21T20:16:46.488Z,6.05
2022-11-21T20:19:07.942Z,5.88
2022-11-21T20:21:34.625Z,6.09
2022-11-21T20:21:46.519Z,6.09
2022-11-21T20:24:01.044Z,6.24
2022-11-21T20:26:28.384Z,5.70
2022-11-21T20:26:46.713Z,5.70
2022-11-21T20:28:55.553Z,6.14
2022-11-21T20:31:24.837Z,6.15
2022-11-21T20:31:46.500Z,6.15
2022-11-21T20:33:54.137Z,5.19
2022-11-21T20:36:22.874Z,5.95
2022-11-21T20:36:46.501Z,5.95
2022-11-21T20:38:54.510Z,6.11
2022-11-21T20:41:23.233Z,6.08
2022-11-21T20:41:46.541Z,6.08
2022-11-21T20:44:34.634Z,5.14
2022-11-21T20:46:40.053Z,5.48
2022-11-21T20:46:46.556Z,5.48
2022-11-21T20:49:06.616Z,5.49
2022-11-21T20:54:19.948Z,6.02
2022-11-21T20:56:46.392Z,5.76
2022-11-21T20:56:46.610Z,5.76
2022-11-21T20:59:13.097Z,5.48
2022-11-21T21:01:39.808Z,5.93
2022-11-21T21:01:46.646Z,5.93
2022-11-21T21:04:06.474Z,5.92
2022-11-21T21:06:32.845Z,5.44
2022-11-21T21:06:46.524Z,5.44
2022-11-21T21:08:59.432Z,5.02
2022-11-21T21:11:50.517Z,5.25
2022-11-21T21:11:52.732Z,5.25
2022-11-21T21:14:12.168Z,5.22
2022-11-21T21:16:38.509Z,5.38
2022-11-21T21:16:46.508Z,5.38
2022-11-21T21:19:04.974Z,5.27
2022-11-21T21:21:31.411Z,5.62
2022-11-21T21:21:46.559Z,5.62
2022-11-21T21:24:03.504Z,5.48
2022-11-21T21:26:41.776Z,5.50
2022-11-21T21:26:46.715Z,5.50
2022-11-21T21:29:10.767Z,5.78
2022-11-21T21:31:37.216Z,5.75
2022-11-21T21:31:51.219Z,5.75
2022-11-21T21:34:03.581Z,5.67
2022-11-21T21:36:30.235Z,5.79
2022-11-21T21:36:46.510Z,5.79
2022-11-21T21:38:58.426Z,5.67
2022-11-21T21:41:27.054Z,5.86
2022-11-21T21:41:47.584Z,5.86
2022-11-21T21:43:54.625Z,5.89
2022-11-21T21:46:23.066Z,5.39
2022-11-21T21:46:46.548Z,5.39
2022-11-21T21:48:52.791Z,5.92
2022-11-21T21:51:21.934Z,4.90
2022-11-21T21:51:46.572Z,4.90
2022-11-21T21:53:49.964Z,5.36
2022-11-21T21:56:17.853Z,5.89
2022-11-21T21:56:46.611Z,5.89
2022-11-21T21:58:46.161Z,5.43
2022-11-21T22:01:13.864Z,5.78
2022-11-21T22:01:46.714Z,5.78
2022-11-21T22:03:42.269Z,5.89
2022-11-21T22:06:10.649Z,5.88
2022-11-21T22:06:46.534Z,5.88
2022-11-21T22:08:38.705Z,4.70
2022-11-21T22:11:20.175Z,5.78
2022-11-21T22:11:46.558Z,5.78
2022-11-21T22:13:50.786Z,5.77
2022-11-21T22:16:17.506Z,5.76
2022-11-21T22:16:46.534Z,5.76
2022-11-21T22:18:44.231Z,4.40
2022-11-21T22:21:20.062Z,5.52
2022-11-21T22:21:46.558Z,5.52
2022-11-21T22:26:34.655Z,5.22
2022-11-21T22:26:46.679Z,5.22
2022-11-21T22:29:01.129Z,5.69
2022-11-21T22:31:30.132Z,5.69